Algiers Airport, Algeria

6:58 PM CET on October 24, 2014 (GMT +0100)
Houari Boumediene | Change Station
CLOSE
Current Station
Airport
Location: Algiers Airport,
Elevation: 82 ft
Nearby Weather Stations

Elev 82 ft 36.69 °N, 3.22 °E | Updated 28 minutes ago

Clear
Clear
68 °F
Feels Like 68 °F
N
6
Wind Variable Wind from NNE

Today
High -- | Low -- °F
--% Chance of Precip.
Yesterday
High -- | Low -- °F
Precip. -- in
7:02 AM 5:59 PM
New Moon, 1% visible
Pressure 30.06 in
Visibility -9999.0 miles
Clouds
Dew Point 57 °F
Humidity 68%
Rainfall 0.00 in
Snow Depth Not available.
UV Not available.
Pollen Not available.
Air Quality Not available.
Flu Activity Not available.
METAR DAAG 241730Z 03005KT CAVOK 20/14 Q1018

More Conditions Fewer Conditions

Pressure 30.06 in
Visibility -9999.0 miles
Clouds
Dew Point 57 °F
Humidity 68%
Rainfall 0.00 in
Snow Depth Not available.
UV Not available.
Pollen Not available.
Air Quality Not available.
Flu Activity Not available.
METAR DAAG 241730Z 03005KT CAVOK 20/14 Q1018

More Conditions Fewer Conditions

10-Day Weather Forecast

Almanac

Astronomy

Oct. 24, 2014 Rise Set
Actual Time 7:02 AM CET 5:59 PM CET
Civil Twilight 6:36 AM CET 6:25 PM CET
Nautical Twilight 6:05 AM CET 6:55 PM CET
Astronomical Twilight 5:35 AM CET 7:25 PM CET
Moon 7:25 AM CET 6:29 PM CET
Length of Visible Light 11h 49m
Length of Day
10h 56m
Tomorrow will be 2m 10s shorter.
New Moon, 1% of the Moon is Illuminated
Today
New Moon
Oct 30
First Quarter
Nov 6
Full
Nov 14
Last Quarter
Nov 22
New

Today's Extremes

Country Highs Country Lows

Community

WunderPhotos

Upload Photos

1,764,619 photos uploaded!

WunderBlogs® & News

Nearby

Snow Depth

Not available.

Earthquake Activity

City Distance Mag. Time & Date
No recent earthquake activity has been reported nearby.
Minimum magnitude displayed is 2.5.

Coastal Water Temperatures

Place Temperature
No Stations Reporting

Nearby Weather Stations